Time;durP1;ratioP1;P1;durP2;ratioP2;P2;SDS_P1;SDS_P2;PMS_P1;PMS_P2;Temp;Humidity;BMP_temperature;BMP_pressure;BME280_temperature;BME280_humidity;BME280_pressure;Samples;Min_cycle;Max_cycle;Signal;HPM_P1;HPM_P2
2022/06/04 00:02:09;;;;;;;1.55;1.30;;;;;;;;;;5036637;28;20613;-79
2022/06/04 00:04:36;;;;;;;1.50;1.30;;;;;;;;;;5034700;28;20627;-78
2022/06/04 00:07:03;;;;;;;1.63;1.30;;;;;;;;;;5041319;28;20712;-80
2022/06/04 00:09:30;;;;;;;1.85;1.75;;;;;;;;;;5031244;28;20238;-79
2022/06/04 00:17:29;;;;;;;2.50;1.23;;;;;;;;;;5035161;28;20210;-79
2022/06/04 00:19:56;;;;;;;2.03;1.45;;;;;;;;;;5034734;28;20257;-80
2022/06/04 00:22:23;;;;;;;2.15;1.38;;;;;;;;;;5039551;28;20325;-80
2022/06/04 00:24:50;;;;;;;1.83;1.42;;;;;;;;;;5035137;28;20654;-80
2022/06/04 00:27:19;;;;;;;2.05;1.52;;;;;;;;;;5035326;28;20303;-80
2022/06/04 00:29:48;;;;;;;1.40;1.30;;;;;;;;;;5036218;28;20345;-79
2022/06/04 00:32:16;;;;;;;1.90;1.70;;;;;;;;;;5037344;28;20204;-79
2022/06/04 00:34:43;;;;;;;1.48;1.38;;;;;;;;;;5033784;28;20319;-80
2022/06/04 00:37:10;;;;;;;1.83;1.73;;;;;;;;;;5037468;28;20191;-80
2022/06/04 00:39:38;;;;;;;2.33;1.83;;;;;;;;;;5040208;28;20627;-79
2022/06/04 00:42:07;;;;;;;1.92;1.80;;;;;;;;;;5036758;28;20269;-80
2022/06/04 00:44:55;;;;;;;2.33;1.65;;;;;;;;;;5032575;28;20199;-80
2022/06/04 00:47:25;;;;;;;1.60;1.50;;;;;;;;;;5040112;28;20238;-79
2022/06/04 00:49:52;;;;;;;1.65;1.55;;;;;;;;;;5034284;28;20202;-80
2022/06/04 00:52:20;;;;;;;2.67;1.90;;;;;;;;;;5033806;28;20234;-82
2022/06/04 00:54:51;;;;;;;3.00;1.67;;;;;;;;;;5038202;28;20686;-78
2022/06/04 00:57:26;;;;;;;2.13;1.50;;;;;;;;;;5039162;28;20199;-80
2022/06/04 00:59:57;;;;;;;2.17;1.70;;;;;;;;;;5031902;28;20195;-80
2022/06/04 01:02:28;;;;;;;1.70;1.60;;;;;;;;;;5031667;28;20190;-81
2022/06/04 01:05:00;;;;;;;1.50;1.40;;;;;;;;;;5032075;28;20205;-81
2022/06/04 01:07:34;;;;;;;2.85;1.20;;;;;;;;;;5037666;28;20196;-81
2022/06/04 01:10:08;;;;;;;2.22;1.85;;;;;;;;;;5035197;28;20194;-81
2022/06/04 01:12:45;;;;;;;2.00;1.60;;;;;;;;;;5037752;28;20209;-80
2022/06/04 01:15:17;;;;;;;1.80;1.48;;;;;;;;;;5031670;28;20227;-81
2022/06/04 01:17:54;;;;;;;1.63;1.52;;;;;;;;;;5040261;28;20195;-82
2022/06/04 01:20:27;;;;;;;1.58;1.48;;;;;;;;;;5032296;28;20200;-81
2022/06/04 01:23:08;;;;;;;1.40;1.30;;;;;;;;;;5032913;28;20207;-81
2022/06/04 01:25:41;;;;;;;1.40;1.30;;;;;;;;;;5033658;28;20196;-81
2022/06/04 01:28:11;;;;;;;2.95;1.70;;;;;;;;;;5031284;28;20192;-81
2022/06/04 01:30:41;;;;;;;1.63;1.52;;;;;;;;;;5036458;28;20567;-81
2022/06/04 01:33:10;;;;;;;1.85;1.60;;;;;;;;;;5033610;28;20540;-80
2022/06/04 01:35:40;;;;;;;1.88;1.40;;;;;;;;;;5034108;28;20223;-82
2022/06/04 01:38:12;;;;;;;1.80;1.70;;;;;;;;;;5035781;28;20191;-80
2022/06/04 01:43:29;;;;;;;2.30;1.75;;;;;;;;;;5036694;28;20186;-81
2022/06/04 01:45:58;;;;;;;2.08;1.55;;;;;;;;;;5034774;28;20282;-81
2022/06/04 01:48:27;;;;;;;2.15;1.73;;;;;;;;;;5034726;28;20585;-81
2022/06/04 01:50:56;;;;;;;1.60;1.50;;;;;;;;;;5036362;28;20262;-81
2022/06/04 01:53:25;;;;;;;1.90;1.70;;;;;;;;;;5032284;28;20207;-81
2022/06/04 01:55:55;;;;;;;2.00;1.48;;;;;;;;;;5033147;28;20221;-80
2022/06/04 01:58:24;;;;;;;2.40;1.63;;;;;;;;;;5038070;28;20643;-80
2022/06/04 02:00:54;;;;;;;6.10;2.63;;;;;;;;;;5033741;28;20199;-80
2022/06/04 02:03:23;;;;;;;1.95;1.75;;;;;;;;;;5032707;28;20237;-81
2022/06/04 02:05:53;;;;;;;1.40;1.30;;;;;;;;;;5038102;28;20195;-80
2022/06/04 02:08:22;;;;;;;1.90;1.80;;;;;;;;;;5032804;28;20251;-81
2022/06/04 02:10:52;;;;;;;1.92;1.50;;;;;;;;;;5041975;28;20229;-80
2022/06/04 02:13:19;;;;;;;4.93;1.85;;;;;;;;;;5034831;28;20199;-79
2022/06/04 02:15:50;;;;;;;2.25;2.05;;;;;;;;;;5029214;28;20630;-80
2022/06/04 02:18:18;;;;;;;2.67;1.98;;;;;;;;;;5027564;28;20241;-80
2022/06/04 02:20:45;;;;;;;2.75;2.20;;;;;;;;;;5032995;28;20691;-79
2022/06/04 02:23:13;;;;;;;2.15;1.90;;;;;;;;;;5029300;28;20210;-80
2022/06/04 02:25:40;;;;;;;2.00;1.80;;;;;;;;;;5032734;28;20208;-80
2022/06/04 02:28:07;;;;;;;1.75;1.60;;;;;;;;;;5028704;28;20199;-79
2022/06/04 02:30:41;;;;;;;2.50;2.30;;;;;;;;;;5028424;28;20230;-80
2022/06/04 02:33:10;;;;;;;2.08;1.80;;;;;;;;;;5030553;28;20639;-79
2022/06/04 02:35:42;;;;;;;1.75;1.65;;;;;;;;;;5036505;28;20222;-79
2022/06/04 02:38:12;;;;;;;3.42;2.17;;;;;;;;;;5031370;28;20192;-80
2022/06/04 02:40:42;;;;;;;1.90;1.80;;;;;;;;;;5029759;28;20204;-79
2022/06/04 02:43:13;;;;;;;1.98;1.60;;;;;;;;;;5028859;28;20246;-80
2022/06/04 02:45:41;;;;;;;1.92;1.73;;;;;;;;;;5031579;28;20195;-81
2022/06/04 02:48:18;;;;;;;2.45;2.22;;;;;;;;;;5032356;28;20269;-80
2022/06/04 02:50:49;;;;;;;1.70;1.60;;;;;;;;;;5035309;28;20195;-80
2022/06/04 02:53:16;;;;;;;2.78;2.17;;;;;;;;;;5030855;28;20257;-80
2022/06/04 02:55:46;;;;;;;2.05;1.80;;;;;;;;;;5031877;28;20215;-80
2022/06/04 02:58:15;;;;;;;1.83;1.60;;;;;;;;;;5029989;28;20207;-80
2022/06/04 03:00:42;;;;;;;1.90;1.70;;;;;;;;;;5029893;28;20192;-80
2022/06/04 03:03:12;;;;;;;3.80;1.90;;;;;;;;;;5037544;28;20207;-80
2022/06/04 03:05:39;;;;;;;2.75;2.10;;;;;;;;;;5030458;28;20285;-80
2022/06/04 03:08:08;;;;;;;2.15;1.95;;;;;;;;;;5031620;28;20289;-80
2022/06/04 03:10:37;;;;;;;2.22;1.70;;;;;;;;;;5032070;28;20200;-79
2022/06/04 03:13:04;;;;;;;2.35;2.15;;;;;;;;;;5030336;28;20195;-79
2022/06/04 03:15:31;;;;;;;2.92;1.65;;;;;;;;;;5032118;28;20302;-80
2022/06/04 03:17:58;;;;;;;1.65;1.55;;;;;;;;;;5033147;28;20207;-80
2022/06/04 03:20:26;;;;;;;1.90;1.80;;;;;;;;;;5031988;28;20196;-79
2022/06/04 03:22:53;;;;;;;1.75;1.65;;;;;;;;;;5034025;28;20195;-80
2022/06/04 03:25:22;;;;;;;2.00;1.80;;;;;;;;;;5035272;28;20237;-79
2022/06/04 03:27:49;;;;;;;2.28;2.08;;;;;;;;;;5033439;28;20211;-79
2022/06/04 03:30:17;;;;;;;1.92;1.83;;;;;;;;;;5032186;28;20291;-81
2022/06/04 03:32:44;;;;;;;2.30;1.80;;;;;;;;;;5036075;28;20218;-80
2022/06/04 03:35:13;;;;;;;5.40;2.50;;;;;;;;;;5040179;28;20231;-80
2022/06/04 03:37:40;;;;;;;1.73;1.63;;;;;;;;;;5037225;28;20685;-80
2022/06/04 03:40:08;;;;;;;2.05;1.88;;;;;;;;;;5033357;28;22174;-80
2022/06/04 03:42:36;;;;;;;4.20;1.90;;;;;;;;;;5034075;28;20227;-80
2022/06/04 03:45:04;;;;;;;2.10;1.52;;;;;;;;;;5035332;28;20200;-79
2022/06/04 03:47:36;;;;;;;1.92;1.80;;;;;;;;;;5032130;28;20195;-81
2022/06/04 03:50:03;;;;;;;2.25;1.85;;;;;;;;;;5032975;28;20254;-79
2022/06/04 03:52:30;;;;;;;2.05;1.95;;;;;;;;;;5037783;28;20211;-80
2022/06/04 03:54:57;;;;;;;3.08;2.00;;;;;;;;;;5038787;28;20223;-79
2022/06/04 03:57:42;;;;;;;2.17;2.03;;;;;;;;;;5039439;28;20199;-81
2022/06/04 04:00:13;;;;;;;2.25;2.10;;;;;;;;;;5028098;28;20199;-79
2022/06/04 04:02:40;;;;;;;1.70;1.60;;;;;;;;;;5031128;28;20668;-79
2022/06/04 04:05:08;;;;;;;2.72;1.83;;;;;;;;;;5035539;28;20566;-80
2022/06/04 04:07:36;;;;;;;4.88;2.53;;;;;;;;;;5030619;28;20199;-80
2022/06/04 04:10:03;;;;;;;2.00;1.73;;;;;;;;;;5038314;28;20206;-80
2022/06/04 04:12:30;;;;;;;2.15;1.95;;;;;;;;;;5030157;28;20289;-81
2022/06/04 04:14:58;;;;;;;2.15;1.95;;;;;;;;;;5033227;28;20222;-79
2022/06/04 04:17:26;;;;;;;1.40;1.30;;;;;;;;;;5029352;28;20662;-79
2022/06/04 04:19:53;;;;;;;1.60;1.50;;;;;;;;;;5034550;28;20207;-79
2022/06/04 04:22:20;;;;;;;1.85;1.75;;;;;;;;;;5028441;28;20226;-77
2022/06/04 04:24:48;;;;;;;3.05;1.73;;;;;;;;;;5035446;28;21970;-78
2022/06/04 04:27:15;;;;;;;1.98;1.75;;;;;;;;;;5029125;28;20242;-80
2022/06/04 04:29:42;;;;;;;2.25;1.85;;;;;;;;;;5033320;28;20306;-79
2022/06/04 04:32:10;;;;;;;2.58;2.38;;;;;;;;;;5033087;28;20575;-78
2022/06/04 04:34:39;;;;;;;2.22;2.03;;;;;;;;;;5034588;28;20612;-77
2022/06/04 04:37:06;;;;;;;4.88;2.90;;;;;;;;;;5031390;28;20793;-78
2022/06/04 04:39:33;;;;;;;2.00;1.90;;;;;;;;;;5031844;28;21152;-77
2022/06/04 04:42:00;;;;;;;3.03;2.72;;;;;;;;;;5031554;28;20254;-77
2022/06/04 04:44:28;;;;;;;2.70;2.50;;;;;;;;;;5032333;28;20203;-77
2022/06/04 04:46:55;;;;;;;2.90;2.63;;;;;;;;;;5032616;28;20482;-79
2022/06/04 04:49:22;;;;;;;4.13;2.92;;;;;;;;;;5034486;28;20202;-79
2022/06/04 04:51:51;;;;;;;4.65;2.38;;;;;;;;;;5030761;28;20219;-78
2022/06/04 04:54:18;;;;;;;3.03;2.83;;;;;;;;;;5029415;28;20199;-78
2022/06/04 04:56:45;;;;;;;2.55;2.35;;;;;;;;;;5031465;28;20215;-78
2022/06/04 04:59:12;;;;;;;2.40;2.15;;;;;;;;;;5032085;28;20562;-78
2022/06/04 05:01:39;;;;;;;2.22;2.10;;;;;;;;;;5036032;28;20215;-78
2022/06/04 05:04:06;;;;;;;2.10;1.95;;;;;;;;;;5031807;28;20200;-77
2022/06/04 05:06:34;;;;;;;3.28;2.28;;;;;;;;;;5030542;28;20563;-76
2022/06/04 05:09:02;;;;;;;3.03;2.38;;;;;;;;;;5030689;28;20206;-80
2022/06/04 05:11:31;;;;;;;3.28;2.95;;;;;;;;;;5033172;28;20486;-79
2022/06/04 05:13:59;;;;;;;2.45;2.25;;;;;;;;;;5034394;28;20662;-78
2022/06/04 05:16:27;;;;;;;2.80;2.40;;;;;;;;;;5029071;28;20215;-80
2022/06/04 05:18:55;;;;;;;2.45;2.25;;;;;;;;;;5031289;28;20295;-78
2022/06/04 05:21:23;;;;;;;2.50;2.30;;;;;;;;;;5033050;28;20196;-79
2022/06/04 05:23:50;;;;;;;2.53;1.70;;;;;;;;;;5030169;28;20266;-80
2022/06/04 05:26:19;;;;;;;2.78;2.58;;;;;;;;;;5033394;28;20634;-79
2022/06/04 05:28:46;;;;;;;3.60;2.13;;;;;;;;;;5031362;28;20212;-80
2022/06/04 05:31:13;;;;;;;2.83;2.03;;;;;;;;;;5031259;28;20201;-81
2022/06/04 05:33:41;;;;;;;3.45;2.75;;;;;;;;;;5032963;28;20748;-79
2022/06/04 05:36:08;;;;;;;2.17;2.00;;;;;;;;;;5032081;28;20556;-80
2022/06/04 05:38:36;;;;;;;2.22;2.08;;;;;;;;;;5032131;28;20203;-79
2022/06/04 05:41:04;;;;;;;2.20;2.00;;;;;;;;;;5034851;28;20202;-79
2022/06/04 05:43:33;;;;;;;3.17;2.30;;;;;;;;;;5031896;28;20200;-82
2022/06/04 05:46:00;;;;;;;2.20;2.00;;;;;;;;;;5033332;28;20195;-80
2022/06/04 05:48:28;;;;;;;2.70;2.35;;;;;;;;;;5034136;28;20199;-79
2022/06/04 05:50:55;;;;;;;2.50;2.13;;;;;;;;;;5032697;28;20731;-79
2022/06/04 05:53:22;;;;;;;2.13;1.90;;;;;;;;;;5029500;28;20674;-79
2022/06/04 05:55:49;;;;;;;2.22;1.90;;;;;;;;;;5032477;28;20351;-79
2022/06/04 05:58:17;;;;;;;1.90;1.80;;;;;;;;;;5033473;28;20199;-80
2022/06/04 06:00:45;;;;;;;1.65;1.55;;;;;;;;;;5030712;28;20215;-80
2022/06/04 06:03:12;;;;;;;1.95;1.75;;;;;;;;;;5034231;28;20207;-80
2022/06/04 06:05:43;;;;;;;1.90;1.80;;;;;;;;;;5030617;28;20202;-79
2022/06/04 06:08:10;;;;;;;2.60;1.75;;;;;;;;;;5026176;28;20210;-78
2022/06/04 06:10:39;;;;;;;3.80;2.50;;;;;;;;;;5037713;28;20199;-79
2022/06/04 06:13:06;;;;;;;2.70;2.10;;;;;;;;;;5028334;28;20192;-80
2022/06/04 06:15:35;;;;;;;2.60;1.80;;;;;;;;;;5029816;28;20219;-78
2022/06/04 06:18:03;;;;;;;1.98;1.88;;;;;;;;;;5029928;28;20211;-77
2022/06/04 06:20:31;;;;;;;2.15;1.95;;;;;;;;;;5029720;28;20924;-79
2022/06/04 06:22:58;;;;;;;1.92;1.73;;;;;;;;;;5031062;28;20640;-80
2022/06/04 06:25:25;;;;;;;2.58;2.10;;;;;;;;;;5031103;28;20563;-76
2022/06/04 06:27:52;;;;;;;2.20;2.00;;;;;;;;;;5032754;28;22753;-77
2022/06/04 06:30:20;;;;;;;4.15;2.67;;;;;;;;;;5028048;28;20210;-78
2022/06/04 06:32:47;;;;;;;2.53;2.33;;;;;;;;;;5030408;28;20211;-78
2022/06/04 06:35:17;;;;;;;2.15;1.70;;;;;;;;;;5033909;28;20760;-77
2022/06/04 06:37:44;;;;;;;2.65;2.45;;;;;;;;;;5027084;28;20207;-79
2022/06/04 06:40:14;;;;;;;3.72;2.33;;;;;;;;;;5032298;28;20250;-80
2022/06/04 06:42:41;;;;;;;3.35;2.33;;;;;;;;;;5033442;28;20215;-78
2022/06/04 06:45:09;;;;;;;2.25;1.60;;;;;;;;;;5032226;28;20196;-79
2022/06/04 06:47:36;;;;;;;2.28;1.95;;;;;;;;;;5031580;28;20211;-78
2022/06/04 06:50:04;;;;;;;2.83;2.25;;;;;;;;;;5038815;28;20198;-79
2022/06/04 06:52:32;;;;;;;1.77;1.67;;;;;;;;;;5034846;28;20210;-79
2022/06/04 06:54:59;;;;;;;1.92;1.70;;;;;;;;;;5035840;28;20195;-80
2022/06/04 06:57:26;;;;;;;2.40;2.20;;;;;;;;;;5035134;28;20222;-77
2022/06/04 06:59:54;;;;;;;2.05;1.90;;;;;;;;;;5040004;28;20597;-78
2022/06/04 07:02:21;;;;;;;2.92;1.63;;;;;;;;;;5034711;28;20196;-78
2022/06/04 07:04:48;;;;;;;1.80;1.70;;;;;;;;;;5032647;28;20199;-80
2022/06/04 07:07:15;;;;;;;2.25;2.05;;;;;;;;;;5034336;28;20191;-77
2022/06/04 07:09:44;;;;;;;2.72;2.22;;;;;;;;;;5036268;28;20688;-78
2022/06/04 07:12:12;;;;;;;2.28;2.08;;;;;;;;;;5035782;28;20292;-76
2022/06/04 07:14:40;;;;;;;1.85;1.70;;;;;;;;;;5037843;28;20298;-80
2022/06/04 07:17:07;;;;;;;2.22;2.03;;;;;;;;;;5037095;28;20226;-82
2022/06/04 07:19:35;;;;;;;2.90;2.70;;;;;;;;;;5032169;28;20214;-83
2022/06/04 07:22:02;;;;;;;2.30;2.08;;;;;;;;;;5031804;28;20303;-82
2022/06/04 07:24:29;;;;;;;1.92;1.73;;;;;;;;;;5036283;28;20207;-81
2022/06/04 07:26:58;;;;;;;2.42;2.22;;;;;;;;;;5036853;28;20203;-79
2022/06/04 07:29:26;;;;;;;2.80;2.05;;;;;;;;;;5035816;28;20689;-80
2022/06/04 07:31:54;;;;;;;2.38;1.88;;;;;;;;;;5039331;28;20577;-82
2022/06/04 07:34:21;;;;;;;2.25;2.05;;;;;;;;;;5035746;28;20226;-80
2022/06/04 07:36:48;;;;;;;2.63;1.90;;;;;;;;;;5032298;28;20729;-80
2022/06/04 07:39:17;;;;;;;2.28;2.08;;;;;;;;;;5030428;28;20206;-80
2022/06/04 07:41:46;;;;;;;2.92;1.70;;;;;;;;;;5033080;28;20301;-81
2022/06/04 07:44:15;;;;;;;2.10;2.00;;;;;;;;;;5035321;28;20196;-80
2022/06/04 07:46:43;;;;;;;2.60;2.30;;;;;;;;;;5033414;28;20203;-81
2022/06/04 07:49:11;;;;;;;2.45;2.25;;;;;;;;;;5028232;28;20647;-80
2022/06/04 07:51:39;;;;;;;4.18;2.25;;;;;;;;;;5037001;28;20304;-80
2022/06/04 07:54:08;;;;;;;1.40;1.30;;;;;;;;;;5049425;28;20199;-80
2022/06/04 07:56:36;;;;;;;2.42;2.05;;;;;;;;;;5036111;28;20211;-78
2022/06/04 07:59:03;;;;;;;1.40;1.25;;;;;;;;;;5030516;28;20294;-79
2022/06/04 08:01:32;;;;;;;2.40;2.20;;;;;;;;;;5035048;28;20226;-79
2022/06/04 08:03:59;;;;;;;4.72;3.60;;;;;;;;;;5031151;28;20643;-76
2022/06/04 08:06:26;;;;;;;2.60;2.10;;;;;;;;;;5034831;28;20268;-78
2022/06/04 08:08:56;;;;;;;3.10;2.58;;;;;;;;;;5034399;28;20202;-78
2022/06/04 08:11:32;;;;;;;2.83;2.25;;;;;;;;;;5047504;28;20195;-78
2022/06/04 08:14:00;;;;;;;5.22;3.05;;;;;;;;;;5041554;28;20195;-79
2022/06/04 08:16:27;;;;;;;2.40;2.08;;;;;;;;;;5042260;28;20226;-78
2022/06/04 08:18:55;;;;;;;2.25;2.15;;;;;;;;;;5052468;28;20289;-78
2022/06/04 08:21:23;;;;;;;3.25;2.15;;;;;;;;;;5037495;28;20257;-78
2022/06/04 08:23:50;;;;;;;2.20;2.10;;;;;;;;;;5033942;28;20204;-78
2022/06/04 08:26:18;;;;;;;3.85;2.45;;;;;;;;;;5047114;28;20206;-78
2022/06/04 08:28:45;;;;;;;3.22;2.92;;;;;;;;;;5049919;28;20659;-78
2022/06/04 08:31:13;;;;;;;2.50;2.30;;;;;;;;;;5053124;28;20820;-78
2022/06/04 08:33:41;;;;;;;2.58;2.05;;;;;;;;;;5053267;28;20655;-79
2022/06/04 08:36:11;;;;;;;4.18;1.90;;;;;;;;;;5044899;28;20218;-78
2022/06/04 08:38:38;;;;;;;4.10;2.63;;;;;;;;;;5046864;28;20658;-78
2022/06/04 08:41:07;;;;;;;2.95;2.08;;;;;;;;;;5044410;28;20601;-78
2022/06/04 08:43:35;;;;;;;2.95;2.00;;;;;;;;;;5047840;28;20214;-79
2022/06/04 08:46:03;;;;;;;2.40;2.00;;;;;;;;;;5048790;28;20221;-78
2022/06/04 08:48:32;;;;;;;2.22;2.05;;;;;;;;;;5051687;28;20868;-79
2022/06/04 08:50:59;;;;;;;2.75;1.73;;;;;;;;;;5048583;28;20206;-78
2022/06/04 08:53:29;;;;;;;1.98;1.88;;;;;;;;;;5046672;28;20214;-77
2022/06/04 08:58:54;;;;;;;2.05;1.95;;;;;;;;;;5046642;28;20202;-79
2022/06/04 09:01:25;;;;;;;2.35;2.15;;;;;;;;;;5047271;28;20209;-79
2022/06/04 09:03:55;;;;;;;2.78;2.58;;;;;;;;;;5048765;28;20194;-79
2022/06/04 09:06:27;;;;;;;2.35;2.20;;;;;;;;;;5046070;28;20226;-78
2022/06/04 09:08:59;;;;;;;2.47;2.10;;;;;;;;;;5048591;28;20190;-78
2022/06/04 09:11:28;;;;;;;2.88;2.65;;;;;;;;;;5046555;28;20570;-78
2022/06/04 09:14:18;;;;;;;2.05;1.85;;;;;;;;;;5050027;28;20507;-79
2022/06/04 09:16:48;;;;;;;2.45;2.25;;;;;;;;;;5047990;28;20219;-79
2022/06/04 09:19:18;;;;;;;2.65;2.45;;;;;;;;;;5051005;28;20670;-78
2022/06/04 09:21:45;;;;;;;5.65;2.08;;;;;;;;;;5047663;28;20293;-79
2022/06/04 09:24:13;;;;;;;3.00;2.80;;;;;;;;;;5055703;28;20206;-81
2022/06/04 09:26:42;;;;;;;2.40;2.20;;;;;;;;;;5045128;28;20207;-82
2022/06/04 09:29:27;;;;;;;2.83;2.15;;;;;;;;;;5035279;28;20210;-82
2022/06/04 09:31:58;;;;;;;3.65;2.80;;;;;;;;;;5035247;28;20198;-80
2022/06/04 09:34:28;;;;;;;6.40;2.05;;;;;;;;;;5047602;28;20210;-81
2022/06/04 09:36:55;;;;;;;2.10;1.90;;;;;;;;;;5044649;28;20251;-80
2022/06/04 09:39:25;;;;;;;2.40;1.67;;;;;;;;;;5050695;28;20681;-82
2022/06/04 09:41:55;;;;;;;2.17;1.95;;;;;;;;;;5047028;28;20315;-81
2022/06/04 09:44:23;;;;;;;2.90;2.70;;;;;;;;;;5044608;28;20203;-81
2022/06/04 09:46:52;;;;;;;3.85;2.78;;;;;;;;;;5049405;28;20202;-81
2022/06/04 09:49:29;;;;;;;2.25;1.85;;;;;;;;;;5048534;28;20187;-83
2022/06/04 09:51:57;;;;;;;4.13;2.42;;;;;;;;;;5051556;28;20751;-82
2022/06/04 09:54:28;;;;;;;2.97;2.72;;;;;;;;;;5052301;28;20206;-80
2022/06/04 09:56:56;;;;;;;3.13;2.47;;;;;;;;;;5049875;28;20221;-81
2022/06/04 09:59:25;;;;;;;3.30;2.17;;;;;;;;;;5043862;28;20200;-81
2022/06/04 10:01:56;;;;;;;6.47;2.20;;;;;;;;;;5047455;28;20631;-81
2022/06/04 10:04:24;;;;;;;3.45;2.45;;;;;;;;;;5042031;28;20260;-81
2022/06/04 10:06:51;;;;;;;2.80;2.45;;;;;;;;;;5035436;28;20204;-81
2022/06/04 10:12:15;;;;;;;2.50;2.20;;;;;;;;;;5039205;28;20190;-81
2022/06/04 10:14:42;;;;;;;2.90;1.90;;;;;;;;;;5044904;28;20200;-81
2022/06/04 10:17:18;;;;;;;1.95;1.85;;;;;;;;;;5050362;28;20721;-81
2022/06/04 10:19:51;;;;;;;2.50;2.10;;;;;;;;;;5042684;28;20589;-81
2022/06/04 10:22:18;;;;;;;4.35;1.88;;;;;;;;;;5036404;28;20222;-82
2022/06/04 10:24:50;;;;;;;2.10;1.90;;;;;;;;;;5039276;28;20201;-81
2022/06/04 10:27:26;;;;;;;2.83;2.35;;;;;;;;;;5040019;28;20199;-81
2022/06/04 10:30:01;;;;;;;1.98;1.58;;;;;;;;;;5049714;28;20205;-80
2022/06/04 10:32:31;;;;;;;2.92;2.60;;;;;;;;;;5050604;28;20210;-81
2022/06/04 10:35:02;;;;;;;3.97;2.35;;;;;;;;;;5039374;28;20218;-82
2022/06/04 10:37:33;;;;;;;2.70;2.50;;;;;;;;;;5044889;28;20232;-82
2022/06/04 10:40:08;;;;;;;2.65;2.10;;;;;;;;;;5049399;28;20206;-80
2022/06/04 10:42:41;;;;;;;2.85;2.30;;;;;;;;;;5040305;28;20219;-80
2022/06/04 10:45:16;;;;;;;2.70;2.20;;;;;;;;;;5038374;28;20571;-80
2022/06/04 10:47:47;;;;;;;2.78;2.58;;;;;;;;;;5049264;28;20509;-80
2022/06/04 10:50:24;;;;;;;2.78;2.42;;;;;;;;;;5039693;28;20208;-81
2022/06/04 10:52:53;;;;;;;2.35;2.15;;;;;;;;;;5050441;28;20207;-81
2022/06/04 10:55:23;;;;;;;2.45;2.25;;;;;;;;;;5049137;28;20204;-80
2022/06/04 10:58:02;;;;;;;2.28;2.08;;;;;;;;;;5048649;28;20681;-80
2022/06/04 11:00:32;;;;;;;2.20;2.00;;;;;;;;;;5038039;28;20669;-81
2022/06/04 11:03:03;;;;;;;2.60;2.40;;;;;;;;;;5051444;28;20216;-81
2022/06/04 11:05:32;;;;;;;3.60;2.00;;;;;;;;;;5041789;28;20667;-80
2022/06/04 11:08:02;;;;;;;3.78;2.05;;;;;;;;;;5044770;28;20641;-80
2022/06/04 11:10:31;;;;;;;2.10;1.88;;;;;;;;;;5047721;28;20203;-80
2022/06/04 11:13:04;;;;;;;2.70;2.25;;;;;;;;;;5041239;28;20199;-82
2022/06/04 11:15:35;;;;;;;3.58;2.40;;;;;;;;;;5040160;28;20212;-82
2022/06/04 11:18:05;;;;;;;3.13;2.45;;;;;;;;;;5038128;28;20266;-80
2022/06/04 11:20:34;;;;;;;2.45;2.25;;;;;;;;;;5046738;28;20483;-81
2022/06/04 11:23:15;;;;;;;2.40;2.20;;;;;;;;;;5050195;28;20221;-84
2022/06/04 11:25:43;;;;;;;2.72;2.53;;;;;;;;;;5049171;28;20726;-81
2022/06/04 11:28:13;;;;;;;2.55;2.28;;;;;;;;;;5042170;28;20294;-80
2022/06/04 11:30:46;;;;;;;1.98;1.88;;;;;;;;;;5038442;28;20207;-82
2022/06/04 11:33:20;;;;;;;2.80;2.28;;;;;;;;;;5046408;28;20591;-82
2022/06/04 11:35:48;;;;;;;2.83;2.55;;;;;;;;;;5054174;28;20304;-80
2022/06/04 11:38:34;;;;;;;3.10;2.80;;;;;;;;;;5045912;28;20223;-81
2022/06/04 11:41:08;;;;;;;2.65;2.05;;;;;;;;;;5046646;28;20204;-82
2022/06/04 11:43:43;;;;;;;2.50;2.30;;;;;;;;;;5047775;28;20702;-81
2022/06/04 11:46:20;;;;;;;2.90;2.50;;;;;;;;;;5041969;28;20222;-81
2022/06/04 11:48:53;;;;;;;7.18;2.88;;;;;;;;;;5034684;28;20212;-81
2022/06/04 11:51:27;;;;;;;2.70;2.50;;;;;;;;;;5037512;28;20187;-82
2022/06/04 11:53:58;;;;;;;2.47;2.15;;;;;;;;;;5050477;28;20237;-83
2022/06/04 11:56:35;;;;;;;2.20;2.00;;;;;;;;;;5044719;28;20634;-82
2022/06/04 11:59:18;;;;;;;2.83;2.08;;;;;;;;;;5045376;28;21000;-82
2022/06/04 12:01:48;;;;;;;2.15;1.90;;;;;;;;;;5038348;28;20205;-80
2022/06/04 12:04:17;;;;;;;3.03;2.25;;;;;;;;;;5046548;28;20201;-80
2022/06/04 12:06:48;;;;;;;2.45;2.25;;;;;;;;;;5039321;28;20247;-80
2022/06/04 12:09:19;;;;;;;2.33;2.13;;;;;;;;;;5048107;28;20222;-81
2022/06/04 12:11:48;;;;;;;2.10;1.92;;;;;;;;;;5050093;28;20224;-82
2022/06/04 12:14:23;;;;;;;3.78;2.30;;;;;;;;;;5040124;28;20198;-80
2022/06/04 12:17:01;;;;;;;2.15;1.80;;;;;;;;;;5039886;28;20740;-87
2022/06/04 12:25:01;;;;;;;3.20;2.90;;;;;;;;;;5015001;28;20222;-81
2022/06/04 12:27:30;;;;;;;3.80;3.00;;;;;;;;;;5046670;28;20915;-86
2022/06/04 12:29:59;;;;;;;2.83;2.63;;;;;;;;;;5049212;28;20537;-83
2022/06/04 12:32:29;;;;;;;3.40;2.43;;;;;;;;;;5040439;28;21005;-83
2022/06/04 12:35:08;;;;;;;2.43;2.20;;;;;;;;;;5047353;28;20470;-82
2022/06/04 12:37:37;;;;;;;6.40;2.53;;;;;;;;;;5049238;28;21034;-82
2022/06/04 12:40:16;;;;;;;2.90;2.07;;;;;;;;;;5034901;28;20498;-83
2022/06/04 12:42:46;;;;;;;4.32;2.65;;;;;;;;;;5040786;28;20487;-81
2022/06/04 12:45:28;;;;;;;2.40;2.20;;;;;;;;;;5044110;28;20272;-82
2022/06/04 12:47:58;;;;;;;2.83;2.07;;;;;;;;;;5032890;28;20441;-81
2022/06/04 12:50:28;;;;;;;2.42;2.22;;;;;;;;;;5043115;28;20488;-82
2022/06/04 12:53:00;;;;;;;3.87;2.07;;;;;;;;;;5056751;28;20188;-83
2022/06/04 12:55:30;;;;;;;2.65;2.05;;;;;;;;;;5052624;28;20527;-83
2022/06/04 12:57:59;;;;;;;3.47;2.38;;;;;;;;;;5051013;28;20225;-82
2022/06/04 13:00:28;;;;;;;1.83;1.60;;;;;;;;;;5051031;28;20691;-82
2022/06/04 13:03:16;;;;;;;2.90;2.70;;;;;;;;;;5051654;28;20208;-80
2022/06/04 13:05:58;;;;;;;2.25;2.03;;;;;;;;;;5042188;28;20198;-83
2022/06/04 13:08:32;;;;;;;2.30;2.10;;;;;;;;;;5052215;28;20228;-83
2022/06/04 13:11:03;;;;;;;2.50;2.00;;;;;;;;;;5049618;28;20452;-81
2022/06/04 13:13:36;;;;;;;2.73;2.53;;;;;;;;;;5046657;28;20193;-81
2022/06/04 13:16:05;;;;;;;3.10;1.80;;;;;;;;;;5044585;28;20443;-82
2022/06/04 13:18:37;;;;;;;3.80;2.27;;;;;;;;;;5052282;28;20483;-82
2022/06/04 13:21:06;;;;;;;2.50;2.30;;;;;;;;;;5043346;28;20510;-83
2022/06/04 13:23:36;;;;;;;2.40;1.95;;;;;;;;;;5052124;28;20835;-82
2022/06/04 13:26:08;;;;;;;2.23;1.83;;;;;;;;;;5052190;28;20198;-83
2022/06/04 13:28:36;;;;;;;2.50;2.30;;;;;;;;;;5045419;28;20488;-84
2022/06/04 13:31:04;;;;;;;2.90;2.23;;;;;;;;;;5040327;28;20567;-81
2022/06/04 13:33:36;;;;;;;2.20;1.93;;;;;;;;;;5039166;28;20465;-83
2022/06/04 13:36:05;;;;;;;2.92;2.28;;;;;;;;;;5043506;28;20555;-82
2022/06/04 13:38:37;;;;;;;1.95;1.85;;;;;;;;;;5051327;28;20212;-81
2022/06/04 13:41:05;;;;;;;4.30;2.10;;;;;;;;;;5046953;28;20566;-82
2022/06/04 13:43:38;;;;;;;2.57;2.37;;;;;;;;;;5043440;28;20563;-83
2022/06/04 13:46:07;;;;;;;2.70;2.30;;;;;;;;;;5043862;28;20497;-82
2022/06/04 13:48:34;;;;;;;2.23;1.97;;;;;;;;;;5047274;28;20460;-81
2022/06/04 13:51:02;;;;;;;2.10;2.00;;;;;;;;;;5035802;28;20455;-81
2022/06/04 13:53:31;;;;;;;1.55;1.45;;;;;;;;;;5034835;28;20833;-82
2022/06/04 13:55:59;;;;;;;6.47;2.67;;;;;;;;;;5035009;28;20210;-81
2022/06/04 13:58:29;;;;;;;2.60;2.35;;;;;;;;;;5045483;28;20488;-82
2022/06/04 14:00:59;;;;;;;2.10;1.90;;;;;;;;;;5052228;28;20947;-82
2022/06/04 14:03:31;;;;;;;3.67;2.22;;;;;;;;;;5042313;28;20650;-82
2022/06/04 14:05:57;;;;;;;2.20;2.00;;;;;;;;;;5039915;28;20214;-83
2022/06/04 14:08:26;;;;;;;2.50;2.20;;;;;;;;;;5031509;28;20434;-82
2022/06/04 14:11:08;;;;;;;2.80;2.13;;;;;;;;;;5041786;28;20202;-82
2022/06/04 14:13:42;;;;;;;2.50;2.13;;;;;;;;;;5044268;28;20204;-85
2022/06/04 14:16:22;;;;;;;2.53;2.33;;;;;;;;;;5035785;28;20193;-82
2022/06/04 14:19:01;;;;;;;5.23;2.00;;;;;;;;;;5051261;28;20225;-83
2022/06/04 14:21:38;;;;;;;4.43;2.42;;;;;;;;;;5035392;28;20467;-84
2022/06/04 14:24:11;;;;;;;3.00;1.85;;;;;;;;;;5031073;28;20674;-84
2022/06/04 14:26:45;;;;;;;2.67;2.20;;;;;;;;;;5051314;28;20204;-82
2022/06/04 14:29:19;;;;;;;2.63;2.42;;;;;;;;;;5047367;28;20214;-83
2022/06/04 14:31:50;;;;;;;2.78;1.80;;;;;;;;;;5047619;28;20205;-82
2022/06/04 14:34:18;;;;;;;2.37;2.00;;;;;;;;;;5040419;28;20204;-82
2022/06/04 14:36:51;;;;;;;2.10;2.00;;;;;;;;;;5047874;28;20460;-85
2022/06/04 14:39:20;;;;;;;2.75;2.55;;;;;;;;;;5050884;28;20225;-83
2022/06/04 14:42:08;;;;;;;3.20;2.57;;;;;;;;;;5050779;28;20309;-83
2022/06/04 14:44:53;;;;;;;2.40;2.20;;;;;;;;;;5035040;28;20955;-81
2022/06/04 14:47:40;;;;;;;2.40;2.00;;;;;;;;;;5050703;28;20684;-80
2022/06/04 14:50:18;;;;;;;3.90;2.53;;;;;;;;;;5046267;28;20456;-83
2022/06/04 14:52:46;;;;;;;2.42;2.22;;;;;;;;;;5050355;28;20444;-82
2022/06/04 14:55:14;;;;;;;2.90;2.50;;;;;;;;;;5047577;28;20275;-82
2022/06/04 14:57:54;;;;;;;1.90;1.80;;;;;;;;;;5050955;28;20449;-82
2022/06/04 15:00:27;;;;;;;2.80;2.13;;;;;;;;;;5042955;28;20201;-81
2022/06/04 15:02:57;;;;;;;2.13;2.03;;;;;;;;;;5047643;28;20198;-82
2022/06/04 15:05:32;;;;;;;2.63;2.10;;;;;;;;;;5051723;28;20817;-82
2022/06/04 15:08:07;;;;;;;3.30;2.20;;;;;;;;;;5049714;28;20460;-83
2022/06/04 15:10:35;;;;;;;2.93;2.30;;;;;;;;;;5047409;28;20197;-83
2022/06/04 15:13:12;;;;;;;2.87;2.60;;;;;;;;;;5038396;28;20497;-82
2022/06/04 15:15:51;;;;;;;2.50;1.93;;;;;;;;;;5038647;28;20523;-82
2022/06/04 15:18:36;;;;;;;5.40;2.00;;;;;;;;;;5055085;28;20465;-82
2022/06/04 15:21:07;;;;;;;3.53;2.37;;;;;;;;;;5045254;28;20452;-82